createdAt,value
2022-08-30T00:00:09.777Z,0.00
2022-08-30T00:01:14.206Z,0.00
2022-08-30T00:02:10.163Z,0.00
2022-08-30T00:03:10.395Z,0.00
2022-08-30T00:04:10.513Z,0.00
2022-08-30T00:05:10.680Z,0.00
2022-08-30T00:06:10.844Z,0.00
2022-08-30T00:07:11.013Z,0.00
2022-08-30T00:08:11.165Z,0.00
2022-08-30T00:09:11.318Z,0.00
2022-08-30T00:10:11.496Z,0.00
2022-08-30T00:11:11.651Z,0.00
2022-08-30T00:12:11.822Z,0.00
2022-08-30T00:13:11.976Z,0.00
2022-08-30T00:14:12.151Z,0.00
2022-08-30T00:15:12.370Z,0.00
2022-08-30T00:16:12.597Z,0.00
2022-08-30T00:17:12.705Z,0.00
2022-08-30T00:18:12.870Z,0.00
2022-08-30T00:19:13.055Z,0.00
2022-08-30T00:20:13.232Z,0.00
2022-08-30T00:21:13.397Z,0.00
2022-08-30T00:22:13.555Z,0.00
2022-08-30T00:23:13.808Z,0.00
2022-08-30T00:24:13.897Z,0.00
2022-08-30T00:25:14.071Z,0.00
2022-08-30T00:26:14.239Z,0.00
2022-08-30T00:27:14.434Z,0.00
2022-08-30T00:28:14.585Z,0.00
2022-08-30T00:29:14.745Z,0.00
2022-08-30T00:30:14.926Z,0.00
2022-08-30T00:31:15.404Z,0.00
2022-08-30T00:32:15.285Z,0.00
2022-08-30T00:33:15.739Z,0.00
2022-08-30T00:34:15.638Z,0.00
2022-08-30T00:35:15.813Z,0.00
2022-08-30T00:36:16.015Z,0.00
2022-08-30T00:37:16.162Z,0.00
2022-08-30T00:38:16.323Z,0.00
2022-08-30T00:39:16.483Z,0.00
2022-08-30T00:40:16.684Z,0.00
2022-08-30T00:41:16.834Z,0.00
2022-08-30T00:42:16.993Z,0.00
2022-08-30T00:43:17.499Z,0.00
2022-08-30T00:44:17.272Z,0.00
2022-08-30T00:45:17.457Z,0.00
2022-08-30T00:46:17.706Z,0.00
2022-08-30T00:47:17.771Z,0.00
2022-08-30T00:48:17.937Z,0.00
2022-08-30T00:49:18.112Z,0.00
2022-08-30T00:50:18.282Z,0.00
2022-08-30T00:51:18.441Z,0.00
2022-08-30T00:52:18.607Z,0.00
2022-08-30T00:53:18.947Z,0.00
2022-08-30T00:54:18.974Z,0.00
2022-08-30T00:55:19.160Z,0.00
2022-08-30T00:56:19.330Z,0.00
2022-08-30T00:57:19.511Z,0.00
2022-08-30T00:58:19.672Z,0.00
2022-08-30T00:59:19.863Z,0.00
2022-08-30T01:00:20.055Z,0.00
2022-08-30T01:01:20.229Z,0.00
2022-08-30T01:02:20.437Z,0.00
2022-08-30T01:03:20.581Z,0.00
2022-08-30T01:04:20.759Z,0.00
2022-08-30T01:05:21.086Z,0.00
2022-08-30T01:06:21.134Z,0.00
2022-08-30T01:07:21.300Z,0.00
2022-08-30T01:08:21.465Z,0.00
2022-08-30T01:09:21.633Z,0.00
2022-08-30T01:10:21.810Z,0.00
2022-08-30T01:11:21.979Z,0.00
2022-08-30T01:12:22.144Z,0.00
2022-08-30T01:13:22.322Z,0.00
2022-08-30T01:14:26.018Z,0.00
2022-08-30T01:15:22.725Z,0.00
2022-08-30T01:16:22.946Z,0.00
2022-08-30T01:17:23.310Z,0.00
2022-08-30T01:18:23.127Z,0.00
2022-08-30T01:19:23.292Z,0.00
2022-08-30T01:20:23.465Z,0.00
2022-08-30T01:21:23.635Z,0.00
2022-08-30T01:22:23.797Z,0.00
2022-08-30T01:23:23.980Z,0.00
2022-08-30T01:24:24.139Z,0.00
2022-08-30T01:25:24.323Z,0.00
2022-08-30T01:26:24.487Z,0.00
2022-08-30T01:27:24.668Z,0.00
2022-08-30T01:28:24.828Z,0.00
2022-08-30T01:29:24.999Z,0.00
2022-08-30T01:30:25.172Z,0.00
2022-08-30T01:31:25.383Z,0.00
2022-08-30T01:32:29.090Z,0.00
2022-08-30T01:33:25.721Z,0.00
2022-08-30T01:34:25.878Z,0.00
2022-08-30T01:35:26.084Z,0.00
2022-08-30T01:36:26.249Z,0.00
2022-08-30T01:37:26.412Z,0.00
2022-08-30T01:38:26.577Z,0.00
2022-08-30T01:39:26.766Z,0.00
2022-08-30T01:40:26.992Z,0.00
2022-08-30T01:41:27.174Z,0.00
2022-08-30T01:42:28.020Z,0.00
2022-08-30T01:43:27.509Z,0.00
2022-08-30T01:44:27.767Z,0.00
2022-08-30T01:45:27.841Z,0.00
2022-08-30T01:46:28.058Z,0.00
2022-08-30T01:47:28.223Z,0.00
2022-08-30T01:48:31.140Z,0.00
2022-08-30T01:49:28.611Z,0.00
2022-08-30T01:50:28.778Z,0.00
2022-08-30T01:51:28.953Z,0.00
2022-08-30T01:52:29.114Z,0.00
2022-08-30T01:53:29.281Z,0.00
2022-08-30T01:54:36.535Z,0.00
2022-08-30T01:55:30.573Z,0.00
2022-08-30T01:56:29.745Z,0.00
2022-08-30T01:57:29.898Z,0.00
2022-08-30T01:58:30.059Z,0.00
2022-08-30T01:59:30.234Z,0.00
2022-08-30T02:00:30.416Z,0.00
2022-08-30T02:01:30.633Z,0.00
2022-08-30T02:02:30.778Z,0.00
2022-08-30T02:03:30.977Z,0.00
2022-08-30T02:04:31.109Z,0.00
2022-08-30T02:05:31.278Z,0.00
2022-08-30T02:06:31.456Z,0.00
2022-08-30T02:07:31.614Z,0.00
2022-08-30T02:08:31.775Z,0.00
2022-08-30T02:09:31.928Z,0.00
2022-08-30T02:10:32.100Z,0.00
2022-08-30T02:11:32.285Z,0.00
2022-08-30T02:12:32.444Z,0.00
2022-08-30T02:13:32.613Z,0.00
2022-08-30T02:14:32.771Z,0.00
2022-08-30T02:15:41.414Z,0.00
2022-08-30T02:16:34.140Z,0.00
2022-08-30T02:17:33.195Z,0.00
2022-08-30T02:18:33.361Z,0.00
2022-08-30T02:19:33.524Z,0.00
2022-08-30T02:20:33.679Z,0.00
2022-08-30T02:21:33.877Z,0.00
2022-08-30T02:22:34.017Z,0.00
2022-08-30T02:23:34.185Z,0.00
2022-08-30T02:24:34.337Z,0.00
2022-08-30T02:25:34.491Z,0.00
2022-08-30T02:26:34.667Z,0.00
2022-08-30T02:27:34.830Z,0.00
2022-08-30T02:28:34.990Z,0.00
2022-08-30T02:29:36.107Z,0.00
2022-08-30T02:30:35.314Z,0.00
2022-08-30T02:31:35.470Z,0.00
2022-08-30T02:32:35.620Z,0.00
2022-08-30T02:33:35.768Z,0.00
2022-08-30T02:34:35.903Z,0.00
2022-08-30T02:35:36.587Z,0.00
2022-08-30T02:36:36.272Z,0.00
2022-08-30T02:37:36.433Z,0.00
2022-08-30T02:38:36.591Z,0.00
2022-08-30T02:39:36.750Z,0.00
2022-08-30T02:40:37.014Z,0.00
2022-08-30T02:41:37.113Z,0.00
2022-08-30T02:42:37.277Z,0.00
2022-08-30T02:43:37.439Z,0.00
2022-08-30T02:44:37.588Z,0.00
2022-08-30T02:45:37.766Z,0.00
2022-08-30T02:46:37.950Z,0.00
2022-08-30T02:47:38.122Z,0.00
2022-08-30T02:48:38.279Z,0.00
2022-08-30T02:49:38.443Z,0.00
2022-08-30T02:50:38.599Z,0.00
2022-08-30T02:51:38.777Z,0.00
2022-08-30T02:52:38.933Z,0.00
2022-08-30T02:53:39.129Z,0.00
2022-08-30T02:54:39.291Z,0.00
2022-08-30T02:55:39.449Z,0.00
2022-08-30T02:56:39.628Z,0.00
2022-08-30T02:57:39.783Z,0.00
2022-08-30T02:58:39.952Z,0.00
2022-08-30T02:59:40.119Z,0.00
2022-08-30T03:00:40.302Z,0.00
2022-08-30T03:01:40.528Z,0.00
2022-08-30T03:02:40.667Z,0.00
2022-08-30T03:03:40.882Z,0.00
2022-08-30T03:04:40.945Z,0.00
2022-08-30T03:05:41.111Z,0.00
2022-08-30T03:06:41.315Z,0.00
2022-08-30T03:07:41.471Z,0.00
2022-08-30T03:08:41.639Z,0.00
2022-08-30T03:09:41.797Z,0.00
2022-08-30T03:10:41.961Z,0.00
2022-08-30T03:11:42.152Z,0.00
2022-08-30T03:12:42.313Z,0.00
2022-08-30T03:13:42.485Z,0.00
2022-08-30T03:14:42.630Z,0.00
2022-08-30T03:15:42.808Z,0.00
2022-08-30T03:16:43.012Z,0.00
2022-08-30T03:17:43.166Z,0.00
2022-08-30T03:18:43.325Z,0.00
2022-08-30T03:19:43.488Z,0.00
2022-08-30T03:20:44.028Z,0.00
2022-08-30T03:21:44.787Z,0.00
2022-08-30T03:22:43.939Z,0.00
2022-08-30T03:23:44.120Z,0.00
2022-08-30T03:24:44.274Z,0.00
2022-08-30T03:25:44.435Z,0.00
2022-08-30T03:26:46.499Z,0.00
2022-08-30T03:27:44.753Z,0.00
2022-08-30T03:28:44.925Z,0.00
2022-08-30T03:29:45.079Z,0.00
2022-08-30T03:30:45.249Z,0.00
2022-08-30T03:31:52.529Z,0.00
2022-08-30T03:32:46.545Z,0.00
2022-08-30T03:33:45.704Z,0.00
2022-08-30T03:34:45.864Z,0.00
2022-08-30T03:35:46.025Z,0.00
2022-08-30T03:36:46.199Z,0.00
2022-08-30T03:37:46.364Z,0.00
2022-08-30T03:38:46.537Z,0.00
2022-08-30T03:39:46.701Z,0.00
2022-08-30T03:40:46.820Z,0.00
2022-08-30T03:41:47.002Z,0.00
2022-08-30T03:42:47.167Z,0.00
2022-08-30T03:43:47.372Z,0.00
2022-08-30T03:44:47.498Z,0.00
2022-08-30T03:45:47.771Z,0.00
2022-08-30T03:46:47.842Z,0.00
2022-08-30T03:47:48.019Z,0.00
2022-08-30T03:48:48.184Z,0.00
2022-08-30T03:49:48.368Z,0.00
2022-08-30T03:50:48.547Z,0.00
2022-08-30T03:51:48.736Z,0.00
2022-08-30T03:52:48.902Z,0.00
2022-08-30T03:53:49.089Z,0.00
2022-08-30T03:54:49.252Z,0.00
2022-08-30T03:55:49.411Z,0.00
2022-08-30T03:56:49.591Z,0.00
2022-08-30T03:57:49.761Z,0.00
2022-08-30T03:58:49.952Z,0.00
2022-08-30T03:59:50.120Z,0.00
2022-08-30T04:00:50.408Z,0.00
2022-08-30T04:01:50.537Z,0.00
2022-08-30T04:02:50.624Z,0.00
2022-08-30T04:03:50.785Z,0.00
2022-08-30T04:04:50.940Z,0.00
2022-08-30T04:05:51.112Z,0.00
2022-08-30T04:06:51.300Z,0.00
2022-08-30T04:07:51.466Z,0.00
2022-08-30T04:08:51.622Z,5.62
2022-08-30T04:09:51.801Z,5.62
2022-08-30T04:10:51.980Z,5.62
2022-08-30T04:11:52.159Z,5.62
2022-08-30T04:12:52.358Z,5.62
2022-08-30T04:13:52.563Z,5.62
2022-08-30T04:14:52.739Z,5.62
2022-08-30T04:15:52.909Z,5.62
2022-08-30T04:16:53.137Z,11.25
2022-08-30T04:17:53.290Z,11.25
2022-08-30T04:18:53.459Z,11.25
2022-08-30T04:19:53.626Z,11.25
2022-08-30T04:20:53.799Z,11.25
2022-08-30T04:21:53.987Z,11.25
2022-08-30T04:22:54.177Z,16.88
2022-08-30T04:23:54.343Z,16.88
2022-08-30T04:24:54.519Z,16.88
2022-08-30T04:25:54.692Z,16.88
2022-08-30T04:26:54.880Z,16.88
2022-08-30T04:27:55.060Z,22.50
2022-08-30T04:28:55.230Z,22.50
2022-08-30T04:29:56.277Z,22.50
2022-08-30T04:30:55.536Z,22.50
2022-08-30T04:31:55.801Z,28.12
2022-08-30T04:32:58.780Z,28.12
2022-08-30T04:33:56.034Z,28.12
2022-08-30T04:34:56.205Z,33.75
2022-08-30T04:35:56.401Z,33.75
2022-08-30T04:36:56.606Z,33.75
2022-08-30T04:38:53.769Z,33.75
2022-08-30T04:39:53.915Z,39.38
2022-08-30T04:40:54.067Z,39.38
2022-08-30T04:41:54.215Z,39.38
2022-08-30T04:42:54.422Z,39.38
2022-08-30T04:43:54.582Z,39.38
2022-08-30T04:44:54.743Z,39.38
2022-08-30T04:45:54.983Z,33.75
2022-08-30T04:46:55.096Z,33.75
2022-08-30T04:47:56.357Z,33.75
2022-08-30T04:48:55.402Z,33.75
2022-08-30T04:49:55.606Z,33.75
2022-08-30T04:50:55.705Z,33.75
2022-08-30T04:51:55.794Z,33.75
2022-08-30T04:52:55.962Z,39.38
2022-08-30T04:53:56.169Z,39.38
2022-08-30T04:54:56.229Z,39.38
2022-08-30T04:55:56.397Z,39.38
2022-08-30T04:56:56.495Z,39.38
2022-08-30T04:57:56.673Z,39.38
2022-08-30T04:58:56.817Z,50.62
2022-08-30T04:59:56.956Z,56.25
2022-08-30T05:00:57.170Z,61.88
2022-08-30T05:01:57.288Z,73.12
2022-08-30T05:02:57.349Z,73.12
2022-08-30T05:03:57.502Z,73.12
2022-08-30T05:04:57.660Z,84.38
2022-08-30T05:05:57.800Z,90.00
2022-08-30T05:06:57.932Z,84.38
2022-08-30T05:07:58.315Z,78.75
2022-08-30T05:08:58.244Z,90.00
2022-08-30T05:09:58.379Z,90.00
2022-08-30T05:10:58.539Z,95.62
2022-08-30T05:11:58.671Z,90.00
2022-08-30T05:12:58.829Z,95.62
2022-08-30T05:13:58.989Z,95.62
2022-08-30T05:14:59.111Z,95.62
2022-08-30T05:15:59.321Z,90.00
2022-08-30T05:16:59.446Z,101.25
2022-08-30T05:17:59.501Z,101.25
2022-08-30T05:18:59.655Z,101.25
2022-08-30T05:19:59.809Z,90.00
2022-08-30T05:20:59.949Z,90.00
2022-08-30T05:22:00.082Z,90.00
2022-08-30T05:23:00.248Z,101.25
2022-08-30T05:24:00.465Z,112.50
2022-08-30T05:25:00.496Z,118.12
2022-08-30T05:26:00.658Z,112.50
2022-08-30T05:27:00.813Z,112.50
2022-08-30T05:28:00.944Z,112.50
2022-08-30T05:29:01.088Z,106.88
2022-08-30T05:30:01.218Z,106.88
2022-08-30T05:31:01.400Z,101.25
2022-08-30T05:32:01.512Z,106.88
2022-08-30T05:33:01.660Z,106.88
2022-08-30T05:34:01.806Z,106.88
2022-08-30T05:35:01.959Z,106.88
2022-08-30T05:36:02.081Z,112.50
2022-08-30T05:37:02.225Z,118.12
2022-08-30T05:38:02.410Z,118.12
2022-08-30T05:39:02.451Z,112.50
2022-08-30T05:40:02.661Z,118.12
2022-08-30T05:41:07.786Z,112.50
2022-08-30T05:42:03.861Z,118.12
2022-08-30T05:43:03.023Z,123.75
2022-08-30T05:44:03.150Z,135.00
2022-08-30T05:45:03.309Z,146.25
2022-08-30T05:46:03.448Z,146.25
2022-08-30T05:47:03.581Z,168.75
2022-08-30T05:48:03.788Z,157.50
2022-08-30T05:49:03.956Z,157.50
2022-08-30T05:50:04.137Z,151.88
2022-08-30T05:51:04.340Z,146.25
2022-08-30T05:52:04.652Z,135.00
2022-08-30T05:53:04.587Z,135.00
2022-08-30T05:54:04.748Z,140.62
2022-08-30T05:55:04.845Z,151.88
2022-08-30T05:56:05.073Z,180.00
2022-08-30T05:57:05.125Z,208.12
2022-08-30T05:58:05.326Z,202.50
2022-08-30T05:59:05.361Z,208.12
2022-08-30T06:00:05.508Z,185.62
2022-08-30T06:01:05.705Z,174.38
2022-08-30T06:02:05.950Z,157.50
2022-08-30T06:03:06.103Z,151.88
2022-08-30T06:04:06.037Z,146.25
2022-08-30T06:05:06.212Z,151.88
2022-08-30T06:06:06.282Z,151.88
2022-08-30T06:07:06.568Z,151.88
2022-08-30T06:08:06.600Z,157.50
2022-08-30T06:09:06.809Z,157.50
2022-08-30T06:10:06.842Z,191.25
2022-08-30T06:11:07.000Z,185.62
2022-08-30T06:12:07.156Z,208.12
2022-08-30T06:13:07.372Z,213.75
2022-08-30T06:14:08.249Z,219.38
2022-08-30T06:15:07.489Z,219.38
2022-08-30T06:16:07.680Z,225.00
2022-08-30T06:17:07.755Z,225.00
2022-08-30T06:18:08.915Z,208.12
2022-08-30T06:19:07.925Z,241.88
2022-08-30T06:20:07.970Z,253.12
2022-08-30T06:21:11.170Z,258.75
2022-08-30T06:22:09.244Z,258.75
2022-08-30T06:23:08.416Z,270.00
2022-08-30T06:24:08.702Z,286.88
2022-08-30T06:25:08.616Z,309.38
2022-08-30T06:26:08.774Z,320.62
2022-08-30T06:27:08.946Z,343.12
2022-08-30T06:28:09.342Z,393.75
2022-08-30T06:29:09.597Z,399.38
2022-08-30T06:30:09.304Z,343.12
2022-08-30T06:31:09.617Z,331.88
2022-08-30T06:32:09.582Z,326.25
2022-08-30T06:33:09.754Z,303.75
2022-08-30T06:34:09.761Z,298.12
2022-08-30T06:35:09.904Z,309.38
2022-08-30T06:36:10.058Z,315.00
2022-08-30T06:37:10.190Z,315.00
2022-08-30T06:38:12.009Z,309.38
2022-08-30T06:39:10.529Z,309.38
2022-08-30T06:40:10.653Z,303.75
2022-08-30T06:41:10.709Z,303.75
2022-08-30T06:42:11.385Z,309.38
2022-08-30T06:43:10.906Z,309.38
2022-08-30T06:44:10.956Z,315.00
2022-08-30T06:45:11.368Z,326.25
2022-08-30T06:46:11.241Z,331.88
2022-08-30T06:47:11.288Z,343.12
2022-08-30T06:48:11.463Z,348.75
2022-08-30T06:49:11.502Z,343.12
2022-08-30T06:50:12.151Z,337.50
2022-08-30T06:51:11.689Z,331.88
2022-08-30T06:52:11.850Z,331.88
2022-08-30T06:53:11.941Z,337.50
2022-08-30T06:54:12.252Z,337.50
2022-08-30T06:55:12.075Z,331.88
2022-08-30T06:56:16.535Z,331.88
2022-08-30T06:57:12.269Z,326.25
2022-08-30T06:58:12.405Z,315.00
2022-08-30T06:59:12.565Z,303.75
2022-08-30T07:00:12.568Z,298.12
2022-08-30T07:01:12.884Z,292.50
2022-08-30T07:02:12.962Z,292.50
2022-08-30T07:03:13.050Z,303.75
2022-08-30T07:04:12.995Z,309.38
2022-08-30T07:05:16.750Z,309.38
2022-08-30T07:06:14.228Z,315.00
2022-08-30T07:07:13.366Z,303.75
2022-08-30T07:08:13.475Z,298.12
2022-08-30T07:09:13.633Z,298.12
2022-08-30T07:10:13.726Z,298.12
2022-08-30T07:11:13.846Z,292.50
2022-08-30T07:12:13.978Z,286.88
2022-08-30T07:13:14.406Z,275.62
2022-08-30T07:14:14.221Z,264.38
2022-08-30T07:15:14.545Z,247.50
2022-08-30T07:16:14.509Z,241.88
2022-08-30T07:17:14.531Z,241.88
2022-08-30T07:18:14.715Z,258.75
2022-08-30T07:19:20.326Z,275.62
2022-08-30T07:20:16.175Z,292.50
2022-08-30T07:21:14.965Z,331.88
2022-08-30T07:22:15.070Z,337.50
2022-08-30T07:23:15.245Z,331.88
2022-08-30T07:24:15.314Z,309.38
2022-08-30T07:25:15.420Z,298.12
2022-08-30T07:26:15.543Z,292.50
2022-08-30T07:27:15.666Z,275.62
2022-08-30T07:28:15.773Z,275.62
2022-08-30T07:29:15.891Z,292.50
2022-08-30T07:30:16.002Z,354.38
2022-08-30T07:31:16.114Z,455.62
2022-08-30T07:32:16.202Z,511.88
2022-08-30T07:33:17.186Z,618.75
2022-08-30T07:34:16.462Z,556.88
2022-08-30T07:35:16.573Z,528.75
2022-08-30T07:36:16.682Z,466.88
2022-08-30T07:37:18.211Z,444.38
2022-08-30T07:38:17.007Z,405.00
2022-08-30T07:39:17.014Z,405.00
2022-08-30T07:40:17.145Z,393.75
2022-08-30T07:41:17.241Z,410.62
2022-08-30T07:42:17.339Z,489.38
2022-08-30T07:43:17.624Z,438.75
2022-08-30T07:44:17.567Z,568.12
2022-08-30T07:45:17.538Z,607.50
2022-08-30T07:46:17.665Z,613.12
2022-08-30T07:47:17.727Z,646.88
2022-08-30T07:48:17.834Z,646.88
2022-08-30T07:49:17.950Z,607.50
2022-08-30T07:50:18.083Z,624.38
2022-08-30T07:51:18.168Z,753.75
2022-08-30T07:52:18.252Z,798.75
2022-08-30T07:53:18.455Z,590.62
2022-08-30T07:54:18.439Z,562.50
2022-08-30T07:55:18.520Z,540.00
2022-08-30T07:56:18.603Z,528.75
2022-08-30T07:57:18.753Z,534.38
2022-08-30T07:58:18.830Z,534.38
2022-08-30T07:59:18.779Z,534.38
2022-08-30T08:00:18.881Z,590.62
2022-08-30T08:01:19.038Z,658.12
2022-08-30T08:02:19.102Z,624.38
2022-08-30T08:03:19.071Z,596.25
2022-08-30T08:04:19.172Z,551.25
2022-08-30T08:05:22.056Z,455.62
2022-08-30T08:06:20.319Z,405.00
2022-08-30T08:07:19.391Z,360.00
2022-08-30T08:08:19.473Z,326.25
2022-08-30T08:09:19.575Z,309.38
2022-08-30T08:10:19.639Z,298.12
2022-08-30T08:11:19.730Z,275.62
2022-08-30T08:12:19.810Z,264.38
2022-08-30T08:13:20.159Z,253.12
2022-08-30T08:14:19.982Z,253.12
2022-08-30T08:15:20.075Z,241.88
2022-08-30T08:16:20.228Z,247.50
2022-08-30T08:17:20.186Z,241.88
2022-08-30T08:18:20.286Z,241.88
2022-08-30T08:19:20.391Z,236.25
2022-08-30T08:20:20.492Z,219.38
2022-08-30T08:21:20.575Z,219.38
2022-08-30T08:22:21.727Z,253.12
2022-08-30T08:23:20.700Z,371.25
2022-08-30T08:24:20.823Z,331.88
2022-08-30T08:25:20.935Z,264.38
2022-08-30T08:26:21.053Z,247.50
2022-08-30T08:27:21.147Z,270.00
2022-08-30T08:28:21.243Z,320.62
2022-08-30T08:29:21.388Z,371.25
2022-08-30T08:30:21.479Z,483.75
2022-08-30T08:31:21.662Z,461.25
2022-08-30T08:32:21.681Z,444.38
2022-08-30T08:33:21.792Z,427.50
2022-08-30T08:34:21.885Z,427.50
2022-08-30T08:35:22.002Z,450.00
2022-08-30T08:36:22.101Z,466.88
2022-08-30T08:37:22.191Z,478.12
2022-08-30T08:38:23.255Z,500.62
2022-08-30T08:39:22.362Z,573.75
2022-08-30T08:40:22.502Z,601.88
2022-08-30T08:41:22.599Z,579.38
2022-08-30T08:42:22.705Z,579.38
2022-08-30T08:43:22.815Z,613.12
2022-08-30T08:44:22.924Z,815.62
2022-08-30T08:45:23.035Z,978.75
2022-08-30T08:46:23.123Z,1153.12
2022-08-30T08:47:23.222Z,1856.25
2022-08-30T08:48:24.709Z,838.12
2022-08-30T08:49:24.360Z,635.62
2022-08-30T08:50:23.461Z,568.12
2022-08-30T08:51:23.552Z,630.00
2022-08-30T08:52:23.628Z,776.25
2022-08-30T08:53:45.150Z,742.50
2022-08-30T08:54:24.757Z,2058.75
2022-08-30T08:55:23.864Z,1254.38
2022-08-30T08:56:23.954Z,973.12
2022-08-30T08:57:24.710Z,1029.38
2022-08-30T08:58:24.134Z,883.12
2022-08-30T08:59:24.234Z,781.88
2022-08-30T09:00:24.354Z,793.12
2022-08-30T09:01:24.527Z,911.25
2022-08-30T09:02:24.561Z,1080.00
2022-08-30T09:03:24.519Z,945.00
2022-08-30T09:04:24.602Z,753.75
2022-08-30T09:05:24.811Z,624.38
2022-08-30T09:06:24.773Z,540.00
2022-08-30T09:07:24.854Z,506.25
2022-08-30T09:08:24.971Z,489.38
2022-08-30T09:09:25.052Z,478.12
2022-08-30T09:10:46.874Z,461.25
2022-08-30T09:11:26.266Z,450.00
2022-08-30T09:12:25.265Z,466.88
2022-08-30T09:13:25.319Z,483.75
2022-08-30T09:14:30.146Z,483.75
2022-08-30T09:15:26.598Z,433.12
2022-08-30T09:16:25.597Z,399.38
2022-08-30T09:17:25.704Z,348.75
2022-08-30T09:18:25.805Z,315.00
2022-08-30T09:19:25.875Z,298.12
2022-08-30T09:20:25.989Z,286.88
2022-08-30T09:21:26.092Z,275.62
2022-08-30T09:22:26.170Z,275.62
2022-08-30T09:23:26.254Z,270.00
2022-08-30T09:24:26.342Z,258.75
2022-08-30T09:25:26.442Z,253.12
2022-08-30T09:26:26.540Z,236.25
2022-08-30T09:27:26.621Z,208.12
2022-08-30T09:28:26.741Z,196.88
2022-08-30T09:29:26.832Z,191.25
2022-08-30T09:30:27.182Z,180.00
2022-08-30T09:31:27.054Z,168.75
2022-08-30T09:32:27.120Z,163.12
2022-08-30T09:33:27.242Z,163.12
2022-08-30T09:34:27.340Z,163.12
2022-08-30T09:35:27.467Z,168.75
2022-08-30T09:36:27.581Z,185.62
2022-08-30T09:37:27.677Z,219.38
2022-08-30T09:38:27.772Z,225.00
2022-08-30T09:39:27.891Z,219.38
2022-08-30T09:40:28.017Z,236.25
2022-08-30T09:41:28.196Z,247.50
2022-08-30T09:42:28.299Z,253.12
2022-08-30T09:43:28.542Z,258.75
2022-08-30T09:44:28.505Z,258.75
2022-08-30T09:45:28.611Z,258.75
2022-08-30T09:46:28.786Z,258.75
2022-08-30T09:47:28.832Z,258.75
2022-08-30T09:48:28.982Z,264.38
2022-08-30T09:49:28.986Z,275.62
2022-08-30T09:50:29.091Z,298.12
2022-08-30T09:51:29.191Z,309.38
2022-08-30T09:52:29.254Z,320.62
2022-08-30T09:53:29.358Z,326.25
2022-08-30T09:54:31.044Z,331.88
2022-08-30T09:55:29.613Z,337.50
2022-08-30T09:56:29.746Z,348.75
2022-08-30T09:57:33.570Z,343.12
2022-08-30T09:58:30.192Z,343.12
2022-08-30T09:59:30.057Z,348.75
2022-08-30T10:00:30.175Z,348.75
2022-08-30T10:01:30.357Z,354.38
2022-08-30T10:02:30.344Z,354.38
2022-08-30T10:04:31.573Z,382.50
2022-08-30T10:05:31.539Z,410.62
2022-08-30T10:06:30.725Z,421.88
2022-08-30T10:07:30.829Z,455.62
2022-08-30T10:08:30.931Z,500.62
2022-08-30T10:09:31.031Z,556.88
2022-08-30T10:10:31.136Z,596.25
2022-08-30T10:11:31.257Z,618.75
2022-08-30T10:12:31.367Z,630.00
2022-08-30T10:13:33.808Z,618.75
2022-08-30T10:14:31.506Z,573.75
2022-08-30T10:15:31.630Z,551.25
2022-08-30T10:16:31.767Z,545.62
2022-08-30T10:17:31.843Z,551.25
2022-08-30T10:18:31.972Z,573.75
2022-08-30T10:19:32.068Z,635.62
2022-08-30T10:20:32.168Z,742.50
2022-08-30T10:21:32.274Z,1057.50
2022-08-30T10:22:32.339Z,905.62
2022-08-30T10:23:32.433Z,939.38
2022-08-30T10:24:33.575Z,1141.88
2022-08-30T10:25:32.620Z,1170.00
2022-08-30T10:26:32.719Z,1209.38
2022-08-30T10:27:32.801Z,1271.25
2022-08-30T10:28:32.890Z,2092.50
2022-08-30T10:29:32.978Z,1366.88
2022-08-30T10:30:33.074Z,1153.12
2022-08-30T10:31:33.130Z,1091.25
2022-08-30T10:32:33.211Z,1170.00
2022-08-30T10:33:33.308Z,1170.00
2022-08-30T10:34:33.381Z,1220.62
2022-08-30T10:35:38.612Z,1293.75
2022-08-30T10:36:34.511Z,1800.00
2022-08-30T10:37:33.578Z,1029.38
2022-08-30T10:38:41.632Z,945.00
2022-08-30T10:39:33.688Z,1001.25
2022-08-30T10:40:33.835Z,1113.75
2022-08-30T10:41:33.823Z,1226.25
2022-08-30T10:42:37.976Z,1175.62
2022-08-30T10:43:35.374Z,1558.12
2022-08-30T10:44:33.968Z,1057.50
2022-08-30T10:45:34.038Z,1012.50
2022-08-30T10:46:34.112Z,888.75
2022-08-30T10:47:34.143Z,871.88
2022-08-30T10:48:34.209Z,877.50
2022-08-30T10:49:34.281Z,928.12
2022-08-30T10:50:38.941Z,1006.88
2022-08-30T10:51:35.303Z,1164.38
2022-08-30T10:52:34.421Z,1395.00
2022-08-30T10:53:34.497Z,1968.75
2022-08-30T10:54:34.594Z,2778.75
2022-08-30T10:55:34.643Z,2373.75
2022-08-30T10:56:34.702Z,1760.62
2022-08-30T10:57:34.778Z,1524.38
2022-08-30T10:58:34.844Z,1462.50
2022-08-30T10:59:34.902Z,1389.38
2022-08-30T11:00:34.888Z,1333.12
2022-08-30T11:01:34.963Z,1333.12
2022-08-30T11:02:35.031Z,1440.00
2022-08-30T11:03:35.077Z,1800.00
2022-08-30T11:04:35.144Z,1749.38
2022-08-30T11:05:35.182Z,1698.75
2022-08-30T11:06:35.222Z,1653.75
2022-08-30T11:07:35.266Z,1490.62
2022-08-30T11:08:35.330Z,1771.88
2022-08-30T11:09:36.019Z,2593.12
2022-08-30T11:10:35.442Z,1569.38
2022-08-30T11:11:35.471Z,1473.75
2022-08-30T11:12:35.558Z,1423.12
2022-08-30T11:13:35.472Z,1389.38
2022-08-30T11:14:35.511Z,1395.00
2022-08-30T11:15:35.505Z,1490.62
2022-08-30T11:16:35.514Z,1648.12
2022-08-30T11:17:35.572Z,1861.88
2022-08-30T11:18:35.602Z,2593.12
2022-08-30T11:19:35.628Z,2418.75
2022-08-30T11:20:35.664Z,2992.50
2022-08-30T11:21:35.685Z,3155.62
2022-08-30T11:22:39.020Z,3071.25
2022-08-30T11:23:35.767Z,2424.38
2022-08-30T11:24:35.804Z,2148.75
2022-08-30T11:25:38.610Z,2340.00
2022-08-30T11:26:35.812Z,3594.38
2022-08-30T11:27:35.859Z,2756.25
2022-08-30T11:28:35.885Z,2812.50
2022-08-30T11:29:35.913Z,2908.12
2022-08-30T11:30:35.924Z,3262.50
2022-08-30T11:31:35.872Z,2008.12
2022-08-30T11:32:35.935Z,2109.38
2022-08-30T11:33:35.845Z,4095.00
2022-08-30T11:34:35.845Z,4044.38
2022-08-30T11:35:35.786Z,2452.50
2022-08-30T11:37:36.945Z,4995.00
2022-08-30T11:38:35.719Z,3571.88
2022-08-30T11:39:35.626Z,4719.38
2022-08-30T11:40:35.626Z,4578.75
2022-08-30T11:41:40.831Z,3667.50
2022-08-30T11:42:36.542Z,2019.38
2022-08-30T11:43:36.867Z,1659.38
2022-08-30T11:44:35.449Z,1721.25
2022-08-30T11:45:35.466Z,2176.88
2022-08-30T11:46:35.356Z,3476.25
2022-08-30T11:47:35.353Z,2548.12
2022-08-30T11:48:35.349Z,3965.62
2022-08-30T11:49:35.332Z,3656.25
2022-08-30T11:50:35.306Z,3841.88
2022-08-30T11:51:35.277Z,3195.00
2022-08-30T11:52:35.249Z,2874.38
2022-08-30T11:53:35.184Z,3285.00
2022-08-30T11:54:35.168Z,2621.25
2022-08-30T11:55:35.121Z,1884.38
2022-08-30T11:56:35.098Z,1845.00
2022-08-30T11:57:35.068Z,1693.12
2022-08-30T11:58:35.038Z,1648.12
2022-08-30T11:59:35.035Z,1760.62
2022-08-30T12:00:35.368Z,1670.62
2022-08-30T12:01:51.886Z,1608.75
2022-08-30T12:02:35.896Z,1636.88
2022-08-30T12:03:35.306Z,1625.62
2022-08-30T12:04:34.697Z,1569.38
2022-08-30T12:05:34.671Z,1501.88
2022-08-30T12:06:34.680Z,1507.50
2022-08-30T12:07:35.797Z,1479.38
2022-08-30T12:08:34.594Z,1473.75
2022-08-30T12:09:34.530Z,1586.25
2022-08-30T12:10:34.519Z,1575.00
2022-08-30T12:11:34.530Z,1575.00
2022-08-30T12:12:34.518Z,2008.12
2022-08-30T12:13:34.570Z,1693.12
2022-08-30T12:14:34.508Z,2520.00
2022-08-30T12:15:34.526Z,1985.62
2022-08-30T12:16:34.532Z,2621.25
2022-08-30T12:17:34.485Z,1991.25
2022-08-30T12:18:34.476Z,1687.50
2022-08-30T12:19:34.480Z,1366.88
2022-08-30T12:20:34.481Z,1203.75
2022-08-30T12:21:45.147Z,1130.62
2022-08-30T12:22:35.416Z,1102.50
2022-08-30T12:23:34.423Z,1186.88
2022-08-30T12:24:34.343Z,1333.12
2022-08-30T12:25:35.113Z,1400.62
2022-08-30T12:26:34.388Z,1541.25
2022-08-30T12:27:34.417Z,1963.12
2022-08-30T12:28:34.368Z,1456.88
2022-08-30T12:29:34.362Z,2542.50
2022-08-30T12:30:34.424Z,1760.62
2022-08-30T12:31:34.407Z,1530.00
2022-08-30T12:32:34.303Z,2480.62
2022-08-30T12:33:41.352Z,3431.25
2022-08-30T12:34:35.276Z,3285.00
2022-08-30T12:35:34.294Z,3948.75
2022-08-30T12:36:34.264Z,4443.75
2022-08-30T12:37:34.300Z,5028.75
2022-08-30T12:38:34.306Z,4545.00
2022-08-30T12:39:34.309Z,4978.12
2022-08-30T12:40:34.371Z,3645.00
2022-08-30T12:41:34.344Z,2778.75
2022-08-30T12:42:35.266Z,2115.00
2022-08-30T12:43:40.647Z,2148.75
2022-08-30T12:44:35.214Z,1805.62
2022-08-30T12:45:34.210Z,1963.12